sensor_id;sensor_type;location;lat;lon;timestamp;pressure;altitude;pressure_sealevel;temperature;humidity
75425;BME280;64007;50.632;13.700;2023-07-31T00:00:33;97810.09;;;15.18;86.82
75425;BME280;64007;50.632;13.700;2023-07-31T00:03:19;97805.69;;;15.09;87.62
75425;BME280;64007;50.632;13.700;2023-07-31T00:05:46;97807.31;;;15.01;87.24
75425;BME280;64007;50.632;13.700;2023-07-31T00:08:11;97812.00;;;14.99;88.63
75425;BME280;64007;50.632;13.700;2023-07-31T00:10:37;97813.00;;;14.98;88.71
75425;BME280;64007;50.632;13.700;2023-07-31T00:13:03;97812.25;;;14.88;91.16
75425;BME280;64007;50.632;13.700;2023-07-31T00:15:29;97802.78;;;14.76;94.25
75425;BME280;64007;50.632;13.700;2023-07-31T00:17:54;97818.09;;;14.66;95.02
75425;BME280;64007;50.632;13.700;2023-07-31T00:20:21;97812.72;;;14.66;94.08
75425;BME280;64007;50.632;13.700;2023-07-31T00:22:46;97819.31;;;14.54;97.52
75425;BME280;64007;50.632;13.700;2023-07-31T00:25:12;97818.56;;;14.44;97.10
75425;BME280;64007;50.632;13.700;2023-07-31T00:27:37;97815.19;;;14.41;94.50
75425;BME280;64007;50.632;13.700;2023-07-31T00:30:04;97815.44;;;14.38;97.64
75425;BME280;64007;50.632;13.700;2023-07-31T00:32:29;97814.38;;;14.31;98.66
75425;BME280;64007;50.632;13.700;2023-07-31T00:34:55;97811.63;;;14.23;99.70
75425;BME280;64007;50.632;13.700;2023-07-31T00:37:21;97812.56;;;14.14;100.00
75425;BME280;64007;50.632;13.700;2023-07-31T00:39:46;97813.69;;;14.11;100.00
75425;BME280;64007;50.632;13.700;2023-07-31T00:42:12;97813.16;;;14.08;100.00
75425;BME280;64007;50.632;13.700;2023-07-31T00:44:38;97807.56;;;14.01;100.00
75425;BME280;64007;50.632;13.700;2023-07-31T00:47:03;97814.53;;;14.12;100.00
75425;BME280;64007;50.632;13.700;2023-07-31T00:49:29;97819.66;;;14.05;100.00
75425;BME280;64007;50.632;13.700;2023-07-31T00:51:55;97813.19;;;13.98;100.00
75425;BME280;64007;50.632;13.700;2023-07-31T00:54:23;97811.97;;;13.93;100.00
75425;BME280;64007;50.632;13.700;2023-07-31T00:56:50;97807.75;;;13.90;100.00
75425;BME280;64007;50.632;13.700;2023-07-31T00:59:18;97811.88;;;13.85;100.00
75425;BME280;64007;50.632;13.700;2023-07-31T01:01:44;97807.13;;;13.78;100.00
75425;BME280;64007;50.632;13.700;2023-07-31T01:04:11;97809.41;;;13.73;100.00
75425;BME280;64007;50.632;13.700;2023-07-31T01:09:26;97817.75;;;13.61;100.00
75425;BME280;64007;50.632;13.700;2023-07-31T01:12:01;97803.56;;;13.60;100.00
75425;BME280;64007;50.632;13.700;2023-07-31T01:14:27;97800.19;;;13.58;100.00
75425;BME280;64007;50.632;13.700;2023-07-31T01:16:53;97801.88;;;13.59;100.00
75425;BME280;64007;50.632;13.700;2023-07-31T01:19:26;97795.84;;;13.57;100.00
75425;BME280;64007;50.632;13.700;2023-07-31T01:22:22;97804.84;;;13.56;100.00
75425;BME280;64007;50.632;13.700;2023-07-31T01:28:02;97795.44;;;13.52;100.00
75425;BME280;64007;50.632;13.700;2023-07-31T01:30:33;97794.91;;;13.48;100.00
75425;BME280;64007;50.632;13.700;2023-07-31T01:33:02;97778.34;;;13.45;100.00
75425;BME280;64007;50.632;13.700;2023-07-31T01:35:34;97789.63;;;13.39;100.00
75425;BME280;64007;50.632;13.700;2023-07-31T01:37:59;97781.59;;;13.39;100.00
75425;BME280;64007;50.632;13.700;2023-07-31T01:40:25;97780.47;;;13.41;100.00
75425;BME280;64007;50.632;13.700;2023-07-31T01:42:51;97780.06;;;13.36;100.00
75425;BME280;64007;50.632;13.700;2023-07-31T01:45:17;97781.19;;;13.34;100.00
75425;BME280;64007;50.632;13.700;2023-07-31T01:47:42;97781.19;;;13.34;100.00
75425;BME280;64007;50.632;13.700;2023-07-31T01:50:08;97788.81;;;13.29;100.00
75425;BME280;64007;50.632;13.700;2023-07-31T01:52:34;97779.81;;;13.30;100.00
75425;BME280;64007;50.632;13.700;2023-07-31T01:55:00;97773.78;;;13.28;100.00
75425;BME280;64007;50.632;13.700;2023-07-31T01:57:25;97782.09;;;13.25;100.00
75425;BME280;64007;50.632;13.700;2023-07-31T01:59:51;97775.06;;;13.24;100.00
75425;BME280;64007;50.632;13.700;2023-07-31T02:02:19;97773.91;;;13.16;100.00
75425;BME280;64007;50.632;13.700;2023-07-31T02:04:45;97769.69;;;13.14;100.00
75425;BME280;64007;50.632;13.700;2023-07-31T02:07:11;97769.00;;;13.12;100.00
75425;BME280;64007;50.632;13.700;2023-07-31T02:09:36;97765.50;;;13.11;100.00
75425;BME280;64007;50.632;13.700;2023-07-31T02:12:02;97761.44;;;13.17;100.00
75425;BME280;64007;50.632;13.700;2023-07-31T02:14:28;97758.47;;;13.10;100.00
75425;BME280;64007;50.632;13.700;2023-07-31T02:16:53;97752.00;;;13.13;100.00
75425;BME280;64007;50.632;13.700;2023-07-31T02:19:19;97747.66;;;13.12;100.00
75425;BME280;64007;50.632;13.700;2023-07-31T02:21:45;97744.16;;;13.11;100.00
75425;BME280;64007;50.632;13.700;2023-07-31T02:24:11;97739.09;;;13.18;100.00
75425;BME280;64007;50.632;13.700;2023-07-31T02:26:36;97737.00;;;13.22;100.00
75425;BME280;64007;50.632;13.700;2023-07-31T02:29:02;97738.53;;;13.24;100.00
75425;BME280;64007;50.632;13.700;2023-07-31T02:31:28;97733.72;;;13.28;100.00
75425;BME280;64007;50.632;13.700;2023-07-31T02:33:54;97735.13;;;13.32;100.00
75425;BME280;64007;50.632;13.700;2023-07-31T02:36:20;97735.81;;;13.34;100.00
75425;BME280;64007;50.632;13.700;2023-07-31T02:38:45;97739.84;;;13.38;100.00
75425;BME280;64007;50.632;13.700;2023-07-31T02:41:11;97734.22;;;13.41;100.00
75425;BME280;64007;50.632;13.700;2023-07-31T02:43:37;97729.13;;;13.47;100.00
75425;BME280;64007;50.632;13.700;2023-07-31T02:46:02;97736.38;;;13.55;100.00
75425;BME280;64007;50.632;13.700;2023-07-31T02:48:28;97736.91;;;13.59;100.00
75425;BME280;64007;50.632;13.700;2023-07-31T02:50:54;97728.47;;;13.63;100.00
75425;BME280;64007;50.632;13.700;2023-07-31T02:53:19;97727.19;;;13.67;100.00
75425;BME280;64007;50.632;13.700;2023-07-31T02:55:45;97734.75;;;13.72;100.00
75425;BME280;64007;50.632;13.700;2023-07-31T02:58:11;97734.28;;;13.76;100.00
75425;BME280;64007;50.632;13.700;2023-07-31T03:00:42;97726.97;;;13.78;100.00
75425;BME280;64007;50.632;13.700;2023-07-31T03:03:07;97730.31;;;13.80;100.00
75425;BME280;64007;50.632;13.700;2023-07-31T03:05:33;97718.50;;;13.83;100.00
75425;BME280;64007;50.632;13.700;2023-07-31T03:07:59;97732.09;;;13.90;100.00
75425;BME280;64007;50.632;13.700;2023-07-31T03:10:24;97722.06;;;13.92;100.00
75425;BME280;64007;50.632;13.700;2023-07-31T03:12:50;97723.75;;;13.93;100.00
75425;BME280;64007;50.632;13.700;2023-07-31T03:15:16;97726.28;;;13.94;100.00
75425;BME280;64007;50.632;13.700;2023-07-31T03:17:42;97725.44;;;13.94;100.00
75425;BME280;64007;50.632;13.700;2023-07-31T03:20:08;97722.63;;;13.95;100.00
75425;BME280;64007;50.632;13.700;2023-07-31T03:22:34;97729.44;;;14.07;100.00
75425;BME280;64007;50.632;13.700;2023-07-31T03:25:03;97724.56;;;14.03;100.00
75425;BME280;64007;50.632;13.700;2023-07-31T03:27:29;97732.00;;;13.99;100.00
75425;BME280;64007;50.632;13.700;2023-07-31T03:29:55;97741.16;;;13.97;100.00
75425;BME280;64007;50.632;13.700;2023-07-31T03:32:20;97738.91;;;14.02;100.00
75425;BME280;64007;50.632;13.700;2023-07-31T03:34:46;97734.84;;;13.98;100.00
75425;BME280;64007;50.632;13.700;2023-07-31T03:37:12;97730.63;;;13.95;100.00
75425;BME280;64007;50.632;13.700;2023-07-31T03:39:37;97736.50;;;13.99;100.00
75425;BME280;64007;50.632;13.700;2023-07-31T03:42:03;97732.84;;;14.00;100.00
75425;BME280;64007;50.632;13.700;2023-07-31T03:44:29;97733.84;;;13.99;100.00
75425;BME280;64007;50.632;13.700;2023-07-31T03:46:55;97734.25;;;14.04;100.00
75425;BME280;64007;50.632;13.700;2023-07-31T03:49:20;97736.78;;;14.05;100.00
75425;BME280;64007;50.632;13.700;2023-07-31T03:51:48;97741.97;;;14.07;100.00
75425;BME280;64007;50.632;13.700;2023-07-31T03:54:13;97737.75;;;14.04;100.00
75425;BME280;64007;50.632;13.700;2023-07-31T03:56:39;97741.97;;;14.07;100.00
75425;BME280;64007;50.632;13.700;2023-07-31T03:59:05;97742.34;;;14.12;100.00
75425;BME280;64007;50.632;13.700;2023-07-31T04:01:31;97742.50;;;14.10;100.00
75425;BME280;64007;50.632;13.700;2023-07-31T04:03:56;97736.31;;;14.10;100.00
75425;BME280;64007;50.632;13.700;2023-07-31T04:06:22;97733.47;;;14.11;100.00
75425;BME280;64007;50.632;13.700;2023-07-31T04:08:48;97731.97;;;14.09;100.00
75425;BME280;64007;50.632;13.700;2023-07-31T04:11:13;97732.19;;;14.16;100.00
75425;BME280;64007;50.632;13.700;2023-07-31T04:13:39;97733.72;;;14.18;100.00
75425;BME280;64007;50.632;13.700;2023-07-31T04:16:05;97738.22;;;14.18;100.00
75425;BME280;64007;50.632;13.700;2023-07-31T04:18:30;97735.06;;;14.22;100.00
75425;BME280;64007;50.632;13.700;2023-07-31T04:20:57;97733.25;;;14.23;100.00
75425;BME280;64007;50.632;13.700;2023-07-31T04:23:26;97731.41;;;14.23;100.00
75425;BME280;64007;50.632;13.700;2023-07-31T04:25:52;97732.25;;;14.24;100.00
75425;BME280;64007;50.632;13.700;2023-07-31T04:28:18;97732.47;;;14.30;100.00
75425;BME280;64007;50.632;13.700;2023-07-31T04:30:44;97737.81;;;14.30;100.00
75425;BME280;64007;50.632;13.700;2023-07-31T04:33:09;97728.47;;;14.34;100.00
75425;BME280;64007;50.632;13.700;2023-07-31T04:35:35;97730.47;;;14.32;100.00
75425;BME280;64007;50.632;13.700;2023-07-31T04:38:01;97728.47;;;14.34;100.00
75425;BME280;64007;50.632;13.700;2023-07-31T04:40:27;97730.47;;;14.32;100.00
75425;BME280;64007;50.632;13.700;2023-07-31T04:42:52;97723.13;;;14.34;100.00
75425;BME280;64007;50.632;13.700;2023-07-31T04:45:18;97720.31;;;14.36;100.00
75425;BME280;64007;50.632;13.700;2023-07-31T04:47:43;97720.84;;;14.39;100.00
75425;BME280;64007;50.632;13.700;2023-07-31T04:50:10;97720.59;;;14.43;100.00
75425;BME280;64007;50.632;13.700;2023-07-31T04:52:35;97724.78;;;14.45;100.00
75425;BME280;64007;50.632;13.700;2023-07-31T04:55:01;97718.28;;;14.48;100.00
75425;BME280;64007;50.632;13.700;2023-07-31T04:57:27;97721.63;;;14.50;100.00
75425;BME280;64007;50.632;13.700;2023-07-31T04:59:53;97719.97;;;14.49;100.00
75425;BME280;64007;50.632;13.700;2023-07-31T05:02:18;97720.00;;;14.57;100.00
75425;BME280;64007;50.632;13.700;2023-07-31T05:04:44;97715.72;;;14.64;100.00
75425;BME280;64007;50.632;13.700;2023-07-31T05:07:10;97713.41;;;14.69;100.00
75425;BME280;64007;50.632;13.700;2023-07-31T05:09:35;97713.25;;;14.70;100.00
75425;BME280;64007;50.632;13.700;2023-07-31T05:12:01;97717.13;;;14.76;100.00
75425;BME280;64007;50.632;13.700;2023-07-31T05:14:27;97702.44;;;14.80;100.00
75425;BME280;64007;50.632;13.700;2023-07-31T05:16:54;97706.84;;;14.89;100.00
75425;BME280;64007;50.632;13.700;2023-07-31T05:19:19;97708.22;;;14.93;100.00
75425;BME280;64007;50.632;13.700;2023-07-31T05:21:45;97698.53;;;15.00;100.00
75425;BME280;64007;50.632;13.700;2023-07-31T05:24:11;97708.28;;;15.10;100.00
75425;BME280;64007;50.632;13.700;2023-07-31T05:26:36;97711.00;;;15.18;100.00
75425;BME280;64007;50.632;13.700;2023-07-31T05:29:03;97705.03;;;15.24;100.00
75425;BME280;64007;50.632;13.700;2023-07-31T05:31:29;97698.34;;;15.28;100.00
75425;BME280;64007;50.632;13.700;2023-07-31T05:33:55;97692.00;;;15.37;100.00
75425;BME280;64007;50.632;13.700;2023-07-31T05:36:20;97700.56;;;15.41;100.00
75425;BME280;64007;50.632;13.700;2023-07-31T05:38:46;97695.56;;;15.46;100.00
75425;BME280;64007;50.632;13.700;2023-07-31T05:41:12;97690.72;;;15.57;100.00
75425;BME280;64007;50.632;13.700;2023-07-31T05:43:39;97704.53;;;15.62;100.00
75425;BME280;64007;50.632;13.700;2023-07-31T05:46:04;97699.19;;;15.71;100.00
75425;BME280;64007;50.632;13.700;2023-07-31T05:48:32;97706.25;;;15.80;100.00
75425;BME280;64007;50.632;13.700;2023-07-31T05:50:59;97704.06;;;15.91;100.00
75425;BME280;64007;50.632;13.700;2023-07-31T05:53:25;97712.28;;;15.98;100.00
75425;BME280;64007;50.632;13.700;2023-07-31T05:55:51;97706.97;;;16.06;100.00
75425;BME280;64007;50.632;13.700;2023-07-31T05:58:17;97709.81;;;16.21;99.55
75425;BME280;64007;50.632;13.700;2023-07-31T06:00:42;97708.34;;;16.43;96.54
75425;BME280;64007;50.632;13.700;2023-07-31T06:03:08;97705.81;;;16.41;95.59
75425;BME280;64007;50.632;13.700;2023-07-31T06:05:34;97711.31;;;16.40;94.38
75425;BME280;64007;50.632;13.700;2023-07-31T06:08:00;97698.91;;;16.55;92.08
75425;BME280;64007;50.632;13.700;2023-07-31T06:10:26;97702.94;;;16.59;90.83
75425;BME280;64007;50.632;13.700;2023-07-31T06:12:52;97699.44;;;16.67;88.10
75425;BME280;64007;50.632;13.700;2023-07-31T06:15:18;97700.09;;;16.69;91.29
75425;BME280;64007;50.632;13.700;2023-07-31T06:17:45;97699.75;;;16.80;90.52
75425;BME280;64007;50.632;13.700;2023-07-31T06:20:10;97696.03;;;16.97;90.79
75425;BME280;64007;50.632;13.700;2023-07-31T06:22:36;97695.34;;;17.03;86.00
75425;BME280;64007;50.632;13.700;2023-07-31T06:25:02;97695.16;;;17.05;84.57
75425;BME280;64007;50.632;13.700;2023-07-31T06:27:28;97697.84;;;17.05;82.88
75425;BME280;64007;50.632;13.700;2023-07-31T06:29:54;97696.81;;;17.14;82.16
75425;BME280;64007;50.632;13.700;2023-07-31T06:32:19;97686.72;;;17.24;85.68
75425;BME280;64007;50.632;13.700;2023-07-31T06:34:45;97688.31;;;17.41;85.92
75425;BME280;64007;50.632;13.700;2023-07-31T06:37:11;97687.69;;;17.31;85.47
75425;BME280;64007;50.632;13.700;2023-07-31T06:39:36;97688.75;;;17.22;86.62
75425;BME280;64007;50.632;13.700;2023-07-31T06:42:03;97687.72;;;17.15;86.47
75425;BME280;64007;50.632;13.700;2023-07-31T06:44:29;97691.09;;;17.17;85.14
75425;BME280;64007;50.632;13.700;2023-07-31T06:46:55;97687.22;;;17.28;85.85
75425;BME280;64007;50.632;13.700;2023-07-31T06:49:20;97686.53;;;17.17;88.37
75425;BME280;64007;50.632;13.700;2023-07-31T06:51:46;97679.19;;;17.11;88.30
75425;BME280;64007;50.632;13.700;2023-07-31T06:54:12;97681.25;;;17.01;89.91
75425;BME280;64007;50.632;13.700;2023-07-31T06:56:38;97677.69;;;17.09;88.08
75425;BME280;64007;50.632;13.700;2023-07-31T06:59:03;97687.94;;;17.05;89.47
75425;BME280;64007;50.632;13.700;2023-07-31T07:01:29;97686.81;;;16.91;89.14
75425;BME280;64007;50.632;13.700;2023-07-31T07:03:55;97678.44;;;16.86;90.92
75425;BME280;64007;50.632;13.700;2023-07-31T07:06:21;97689.53;;;16.83;89.95
75425;BME280;64007;50.632;13.700;2023-07-31T07:08:48;97680.78;;;16.73;90.53
75425;BME280;64007;50.632;13.700;2023-07-31T07:11:13;97687.00;;;16.82;92.62
75425;BME280;64007;50.632;13.700;2023-07-31T07:13:39;97695.22;;;16.80;91.50
75425;BME280;64007;50.632;13.700;2023-07-31T07:16:05;97699.25;;;16.76;93.47
75425;BME280;64007;50.632;13.700;2023-07-31T07:18:30;97700.09;;;16.77;95.41
75425;BME280;64007;50.632;13.700;2023-07-31T07:20:56;97701.75;;;16.78;97.44
75425;BME280;64007;50.632;13.700;2023-07-31T07:23:23;97709.47;;;16.81;91.55
75425;BME280;64007;50.632;13.700;2023-07-31T07:25:49;97703.63;;;16.85;94.59
75425;BME280;64007;50.632;13.700;2023-07-31T07:28:16;97712.00;;;16.90;96.13
75425;BME280;64007;50.632;13.700;2023-07-31T07:30:42;97714.31;;;17.02;97.34
75425;BME280;64007;50.632;13.700;2023-07-31T07:33:07;97714.09;;;17.11;97.55
75425;BME280;64007;50.632;13.700;2023-07-31T07:35:34;97713.59;;;17.16;94.50
75425;BME280;64007;50.632;13.700;2023-07-31T07:38:00;97719.28;;;17.21;93.46
75425;BME280;64007;50.632;13.700;2023-07-31T07:40:27;97714.44;;;17.25;92.81
75425;BME280;64007;50.632;13.700;2023-07-31T07:42:53;97709.19;;;17.31;88.21
75425;BME280;64007;50.632;13.700;2023-07-31T07:45:19;97708.13;;;17.40;89.25
75425;BME280;64007;50.632;13.700;2023-07-31T07:47:44;97714.78;;;17.69;90.36
75425;BME280;64007;50.632;13.700;2023-07-31T07:50:10;97715.09;;;17.97;90.73
75425;BME280;64007;50.632;13.700;2023-07-31T07:52:36;97713.69;;;18.32;89.39
75425;BME280;64007;50.632;13.700;2023-07-31T07:55:02;97710.97;;;18.55;84.52
75425;BME280;64007;50.632;13.700;2023-07-31T07:57:29;97712.34;;;18.73;80.17
75425;BME280;64007;50.632;13.700;2023-07-31T07:59:54;97701.06;;;18.93;76.61
75425;BME280;64007;50.632;13.700;2023-07-31T08:02:20;97709.78;;;18.95;78.82
75425;BME280;64007;50.632;13.700;2023-07-31T08:04:46;97702.00;;;19.00;77.15
75425;BME280;64007;50.632;13.700;2023-07-31T08:07:11;97701.22;;;19.21;76.66
75425;BME280;64007;50.632;13.700;2023-07-31T08:09:38;97702.72;;;19.38;74.50
75425;BME280;64007;50.632;13.700;2023-07-31T08:12:04;97703.47;;;19.17;73.95
75425;BME280;64007;50.632;13.700;2023-07-31T08:14:30;97702.81;;;19.15;75.63
75425;BME280;64007;50.632;13.700;2023-07-31T08:16:56;97705.50;;;19.15;74.81
75425;BME280;64007;50.632;13.700;2023-07-31T08:19:22;97708.78;;;19.40;76.38
75425;BME280;64007;50.632;13.700;2023-07-31T08:21:48;97706.44;;;19.52;72.97
75425;BME280;64007;50.632;13.700;2023-07-31T08:24:13;97703.09;;;19.50;70.00
75425;BME280;64007;50.632;13.700;2023-07-31T08:26:39;97710.63;;;19.39;73.38
75425;BME280;64007;50.632;13.700;2023-07-31T08:29:05;97707.66;;;19.05;74.66
75425;BME280;64007;50.632;13.700;2023-07-31T08:31:30;97707.09;;;19.09;75.95
75425;BME280;64007;50.632;13.700;2023-07-31T08:33:56;97710.09;;;19.29;75.69
75425;BME280;64007;50.632;13.700;2023-07-31T08:36:22;97697.53;;;19.36;74.17
75425;BME280;64007;50.632;13.700;2023-07-31T08:38:48;97698.75;;;19.63;76.80
75425;BME280;64007;50.632;13.700;2023-07-31T08:41:15;97696.06;;;19.63;71.41
75425;BME280;64007;50.632;13.700;2023-07-31T08:43:45;97692.69;;;19.47;74.96
75425;BME280;64007;50.632;13.700;2023-07-31T08:46:12;97689.91;;;19.40;75.03
75425;BME280;64007;50.632;13.700;2023-07-31T08:48:42;97709.44;;;19.27;74.99
75425;BME280;64007;50.632;13.700;2023-07-31T08:51:08;97702.16;;;19.13;73.58
75425;BME280;64007;50.632;13.700;2023-07-31T08:53:34;97694.91;;;19.14;71.97
75425;BME280;64007;50.632;13.700;2023-07-31T08:56:00;97704.06;;;18.75;75.55
75425;BME280;64007;50.632;13.700;2023-07-31T08:58:32;97709.38;;;18.68;77.16
75425;BME280;64007;50.632;13.700;2023-07-31T09:01:03;97702.88;;;18.77;74.59
75425;BME280;64007;50.632;13.700;2023-07-31T09:03:33;97692.22;;;18.84;76.08
75425;BME280;64007;50.632;13.700;2023-07-31T09:05:58;97693.38;;;18.67;73.80
75425;BME280;64007;50.632;13.700;2023-07-31T09:08:26;97689.13;;;18.72;75.62
75425;BME280;64007;50.632;13.700;2023-07-31T09:10:59;97689.22;;;18.79;74.88
75425;BME280;64007;50.632;13.700;2023-07-31T09:13:25;97686.34;;;18.81;73.51
75425;BME280;64007;50.632;13.700;2023-07-31T09:15:52;97694.75;;;18.86;73.62
75425;BME280;64007;50.632;13.700;2023-07-31T09:18:17;97693.63;;;18.95;73.13
75425;BME280;64007;50.632;13.700;2023-07-31T09:20:45;97694.38;;;19.18;74.12
75425;BME280;64007;50.632;13.700;2023-07-31T09:23:13;97693.72;;;19.31;73.31
75425;BME280;64007;50.632;13.700;2023-07-31T09:25:43;97690.25;;;19.52;73.59
75425;BME280;64007;50.632;13.700;2023-07-31T09:28:10;97682.75;;;19.62;69.82
75425;BME280;64007;50.632;13.700;2023-07-31T09:30:47;97690.47;;;19.65;70.71
75425;BME280;64007;50.632;13.700;2023-07-31T09:33:13;97686.50;;;19.82;71.52
75425;BME280;64007;50.632;13.700;2023-07-31T09:35:39;97685.75;;;19.88;69.68
75425;BME280;64007;50.632;13.700;2023-07-31T09:38:10;97674.81;;;19.96;71.16
75425;BME280;64007;50.632;13.700;2023-07-31T09:40:38;97676.78;;;20.02;70.58
75425;BME280;64007;50.632;13.700;2023-07-31T09:43:06;97672.34;;;20.16;70.61
75425;BME280;64007;50.632;13.700;2023-07-31T09:45:35;97674.56;;;20.34;69.59
75425;BME280;64007;50.632;13.700;2023-07-31T09:48:13;97673.97;;;20.39;68.42
75425;BME280;64007;50.632;13.700;2023-07-31T09:50:43;97655.41;;;20.44;68.93
75425;BME280;64007;50.632;13.700;2023-07-31T09:53:09;97659.16;;;20.28;70.87
75425;BME280;64007;50.632;13.700;2023-07-31T09:55:36;97654.47;;;20.15;72.95
75425;BME280;64007;50.632;13.700;2023-07-31T09:58:05;97654.03;;;20.12;70.84
75425;BME280;64007;50.632;13.700;2023-07-31T10:00:32;97652.84;;;19.78;72.25
75425;BME280;64007;50.632;13.700;2023-07-31T10:02:59;97656.56;;;19.77;72.36
75425;BME280;64007;50.632;13.700;2023-07-31T10:05:35;97652.06;;;19.63;74.91
75425;BME280;64007;50.632;13.700;2023-07-31T10:08:03;97661.06;;;19.70;72.08
75425;BME280;64007;50.632;13.700;2023-07-31T10:10:29;97654.91;;;19.76;73.22
75425;BME280;64007;50.632;13.700;2023-07-31T10:12:56;97655.19;;;20.02;72.34
75425;BME280;64007;50.632;13.700;2023-07-31T10:15:22;97647.50;;;20.27;70.21
75425;BME280;64007;50.632;13.700;2023-07-31T10:17:49;97638.59;;;20.48;71.77
75425;BME280;64007;50.632;13.700;2023-07-31T10:20:16;97634.97;;;20.62;70.09
75425;BME280;64007;50.632;13.700;2023-07-31T10:22:45;97628.94;;;20.95;70.20
75425;BME280;64007;50.632;13.700;2023-07-31T10:25:12;97632.13;;;21.05;67.53
75425;BME280;64007;50.632;13.700;2023-07-31T10:27:39;97631.94;;;21.13;67.86
75425;BME280;64007;50.632;13.700;2023-07-31T10:30:11;97626.31;;;21.43;64.59
75425;BME280;64007;50.632;13.700;2023-07-31T10:32:39;97623.16;;;21.33;64.93
75425;BME280;64007;50.632;13.700;2023-07-31T10:35:07;97620.47;;;21.39;67.47
75425;BME280;64007;50.632;13.700;2023-07-31T10:37:41;97621.94;;;21.42;63.44
75425;BME280;64007;50.632;13.700;2023-07-31T10:40:17;97620.88;;;21.43;61.99
75425;BME280;64007;50.632;13.700;2023-07-31T10:42:50;97619.19;;;21.29;63.80
75425;BME280;64007;50.632;13.700;2023-07-31T10:48:01;97609.47;;;21.13;64.94
75425;BME280;64007;50.632;13.700;2023-07-31T10:50:27;97603.56;;;20.89;66.50
75425;BME280;64007;50.632;13.700;2023-07-31T10:52:55;97600.91;;;21.03;67.19
75425;BME280;64007;50.632;13.700;2023-07-31T10:55:25;97596.28;;;21.24;68.55
75425;BME280;64007;50.632;13.700;2023-07-31T10:57:52;97596.28;;;21.24;63.49
75425;BME280;64007;50.632;13.700;2023-07-31T11:00:27;97585.50;;;21.38;62.37
75425;BME280;64007;50.632;13.700;2023-07-31T11:05:47;97585.69;;;22.04;62.08
75425;BME280;64007;50.632;13.700;2023-07-31T11:08:25;97582.56;;;22.20;60.45
75425;BME280;64007;50.632;13.700;2023-07-31T11:13:32;97576.69;;;21.97;59.60
75425;BME280;64007;50.632;13.700;2023-07-31T11:15:58;97574.16;;;21.88;61.34
75425;BME280;64007;50.632;13.700;2023-07-31T11:18:26;97572.28;;;21.76;60.70
75425;BME280;64007;50.632;13.700;2023-07-31T11:20:53;97572.28;;;21.63;61.12
75425;BME280;64007;50.632;13.700;2023-07-31T11:23:21;97568.53;;;21.70;62.35
75425;BME280;64007;50.632;13.700;2023-07-31T11:25:46;97572.09;;;21.77;64.58
75425;BME280;64007;50.632;13.700;2023-07-31T11:28:13;97571.44;;;21.75;62.86
75425;BME280;64007;50.632;13.700;2023-07-31T11:30:41;97577.69;;;21.76;61.29
75425;BME280;64007;50.632;13.700;2023-07-31T11:33:08;97561.25;;;21.84;62.59
75425;BME280;64007;50.632;13.700;2023-07-31T11:35:36;97562.28;;;21.63;63.46
75425;BME280;64007;50.632;13.700;2023-07-31T11:38:02;97561.41;;;21.56;65.98
75425;BME280;64007;50.632;13.700;2023-07-31T11:40:28;97553.88;;;21.45;68.89
75425;BME280;64007;50.632;13.700;2023-07-31T11:42:58;97553.06;;;21.44;70.58
75425;BME280;64007;50.632;13.700;2023-07-31T11:45:29;97556.38;;;21.40;70.13
75425;BME280;64007;50.632;13.700;2023-07-31T11:47:56;97560.19;;;21.65;73.03
75425;BME280;64007;50.632;13.700;2023-07-31T11:50:23;97559.38;;;21.65;71.21
75425;BME280;64007;50.632;13.700;2023-07-31T11:53:00;97558.69;;;21.49;71.75
75425;BME280;64007;50.632;13.700;2023-07-31T11:55:26;97558.50;;;21.57;71.68
75425;BME280;64007;50.632;13.700;2023-07-31T11:57:56;97558.13;;;21.80;70.11
75425;BME280;64007;50.632;13.700;2023-07-31T12:00:23;97547.38;;;22.07;70.60
75425;BME280;64007;50.632;13.700;2023-07-31T12:02:50;97554.00;;;22.50;71.79
75425;BME280;64007;50.632;13.700;2023-07-31T12:05:16;97536.88;;;22.70;65.14
75425;BME280;64007;50.632;13.700;2023-07-31T12:07:52;97541.91;;;22.60;63.23
75425;BME280;64007;50.632;13.700;2023-07-31T12:10:24;97536.63;;;22.91;62.73
75425;BME280;64007;50.632;13.700;2023-07-31T12:15:42;97541.94;;;22.46;59.40
75425;BME280;64007;50.632;13.700;2023-07-31T12:18:13;97536.09;;;22.23;61.05
75425;BME280;64007;50.632;13.700;2023-07-31T12:20:46;97535.69;;;22.26;63.02
75425;BME280;64007;50.632;13.700;2023-07-31T12:23:20;97530.84;;;22.61;63.57
75425;BME280;64007;50.632;13.700;2023-07-31T12:26:13;97525.06;;;23.16;61.24
75425;BME280;64007;50.632;13.700;2023-07-31T12:28:50;97520.00;;;23.70;59.13
75425;BME280;64007;50.632;13.700;2023-07-31T12:31:20;97509.88;;;24.09;55.49
75425;BME280;64007;50.632;13.700;2023-07-31T12:33:47;97500.19;;;24.45;56.12
75425;BME280;64007;50.632;13.700;2023-07-31T12:36:22;97512.03;;;24.25;51.96
75425;BME280;64007;50.632;13.700;2023-07-31T12:38:50;97515.91;;;23.86;55.70
75425;BME280;64007;50.632;13.700;2023-07-31T12:41:16;97505.44;;;23.58;55.39
75425;BME280;64007;50.632;13.700;2023-07-31T12:43:44;97507.34;;;23.51;55.07
75425;BME280;64007;50.632;13.700;2023-07-31T12:46:11;97506.16;;;23.40;56.71
75425;BME280;64007;50.632;13.700;2023-07-31T12:48:38;97495.38;;;23.21;56.60
75425;BME280;64007;50.632;13.700;2023-07-31T12:51:04;97499.97;;;23.27;56.56
75425;BME280;64007;50.632;13.700;2023-07-31T12:53:32;97495.38;;;23.27;55.64
75425;BME280;64007;50.632;13.700;2023-07-31T12:55:58;97491.41;;;23.30;55.92
75425;BME280;64007;50.632;13.700;2023-07-31T12:58:24;97489.38;;;23.50;54.21
75425;BME280;64007;50.632;13.700;2023-07-31T13:00:50;97481.63;;;23.60;54.48